Terminal Aerodrome Forecast
Issued by NWS

Home | Current Version | Previous Version | Graphics & Text | Print | Product List | Glossary On
Versions: 1 2 3 4 5 6 7 8 9 10 11 12 13 14 15 16
953
FTUS43 KBIS 211726
TAFDIK
TAF
KDIK 211726Z 2118/2218 31011KT P6SM FEW090 FEW250
     FM212100 32016G23KT P6SM SKC
     FM220200 31006KT P6SM SKC
     FM220600 28006KT P6SM SKC
     FM221300 28010KT P6SM FEW130 FEW250
     FM221600 30016G24KT P6SM FEW120 FEW250=

USA.gov is the U.S. government's official web portal to all federal, state and local government web resources and services.